Agoura Hills, California
Current Conditions -  °F | °C
As of 7:51 AM on Sunday 23 Nov 2014 (Local Time) from KVNY Reporting Station
Clear Clear  
Wind Chill: 62°   Ceiling: Unl
Heat Index: 62°   Visibility: 10mi
Dew Point: 40°   Wind: 8mph
Humidity: 44%   Direction: 340°NNW
Pressure: 30.17"   Gusts: NA
Location:  34.15°N, 118.77°W
Report Text: KVNY 231551Z 34007KT 10SM CLR 17/04 A3017 RMK AO2 SLP211 T01670044
Loading
Personal Weather Stations






























Interactive Weather Map New forecast layout! Learn more

10-Day Weather Forecast

Advertisements
Track Severe Weather on mobile